Time;durP1;ratioP1;P1;durP2;ratioP2;P2;SDS_P1;SDS_P2;PMS_P1;PMS_P2;Temp;Humidity;BMP_temperature;BMP_pressure;BME280_temperature;BME280_humidity;BME280_pressure;Samples;Min_cycle;Max_cycle;Signal;HPM_P1;HPM_P2
2022/10/28 00:00:44;;;;;;;;;;;12.30;99.90;;;;;;5084487;28;19959;-71
2022/10/28 00:03:10;;;;;;;;;;;12.30;99.90;;;;;;5084400;28;20174;-70
2022/10/28 00:05:37;;;;;;;;;;;12.30;99.90;;;;;;5083546;28;19927;-70
2022/10/28 00:08:04;;;;;;;;;;;12.30;99.90;;;;;;5084218;28;20059;-70
2022/10/28 00:10:30;;;;;;;;;;;12.20;99.90;;;;;;5084518;28;19920;-71
2022/10/28 00:12:58;;;;;;;;;;;12.20;99.90;;;;;;5084196;28;19991;-71
2022/10/28 00:15:25;;;;;;;;;;;12.10;99.90;;;;;;5083517;28;19948;-70
2022/10/28 00:17:52;;;;;;;;;;;12.10;99.90;;;;;;5083528;28;19926;-70
2022/10/28 00:20:18;;;;;;;;;;;12.20;99.90;;;;;;5084015;28;19950;-70
2022/10/28 00:22:45;;;;;;;;;;;12.10;99.90;;;;;;5081664;28;19987;-71
2022/10/28 00:25:11;;;;;;;;;;;12.10;99.90;;;;;;5083514;28;19959;-70
2022/10/28 00:27:38;;;;;;;;;;;12.10;99.90;;;;;;5081929;28;19921;-70
2022/10/28 00:30:07;;;;;;;;;;;12.10;99.90;;;;;;5063902;28;19952;-70
2022/10/28 00:32:33;;;;;;;;;;;12.10;99.90;;;;;;5064523;28;20099;-70
2022/10/28 00:35:00;;;;;;;;;;;12.10;99.90;;;;;;5063179;28;19996;-70
2022/10/28 00:37:27;;;;;;;;;;;12.00;99.90;;;;;;5063975;28;19984;-70
2022/10/28 00:39:53;;;;;;;;;;;12.00;99.90;;;;;;5083499;28;20267;-70
2022/10/28 00:42:21;;;;;;;;;;;12.00;99.90;;;;;;5083891;28;19991;-70
2022/10/28 00:44:53;;;;;;;;;;;11.90;99.90;;;;;;5083250;28;20227;-70
2022/10/28 00:47:27;;;;;;;;;;;11.90;99.90;;;;;;5083427;28;19920;-70
2022/10/28 00:49:56;;;;;;;;;;;11.90;99.90;;;;;;5083698;28;19991;-71
2022/10/28 00:52:25;;;;;;;;;;;11.80;99.90;;;;;;5083747;28;19927;-70
2022/10/28 00:54:52;;;;;;;;;;;11.80;99.90;;;;;;5083066;28;20008;-71
2022/10/28 00:57:21;;;;;;;;;;;11.80;99.90;;;;;;5083355;28;19921;-70
2022/10/28 01:00:09;;;;;;;;;;;11.80;99.90;;;;;;5081563;28;19927;-70
2022/10/28 01:02:45;;;;;;;;;;;11.70;99.90;;;;;;5084194;28;19920;-70
2022/10/28 01:05:12;;;;;;;;;;;11.80;99.90;;;;;;5083351;28;19920;-70
2022/10/28 01:07:39;;;;;;;;;;;11.80;99.90;;;;;;5083536;28;19920;-70
2022/10/28 01:10:06;;;;;;;;;;;11.80;99.90;;;;;;5083662;28;20267;-70
2022/10/28 01:12:39;;;;;;;;;;;11.70;99.90;;;;;;5084010;28;19921;-70
2022/10/28 01:15:09;;;;;;;;;;;11.70;99.90;;;;;;5082874;28;20056;-70
2022/10/28 01:17:45;;;;;;;;;;;11.60;99.90;;;;;;5083798;28;19926;-70
2022/10/28 01:20:30;;;;;;;;;;;11.60;99.90;;;;;;5083870;28;19988;-70
2022/10/28 01:22:59;;;;;;;;;;;11.60;99.90;;;;;;5083865;28;19921;-72
2022/10/28 01:25:44;;;;;;;;;;;11.60;99.90;;;;;;5082806;28;20208;-72
2022/10/28 01:28:20;;;;;;;;;;;11.50;99.90;;;;;;5083653;28;19921;-72
2022/10/28 01:31:04;;;;;;;;;;;11.50;99.90;;;;;;5087350;28;19920;-72
2022/10/28 01:33:35;;;;;;;;;;;11.50;99.90;;;;;;5088082;28;19992;-72
2022/10/28 01:36:07;;;;;;;;;;;11.50;99.90;;;;;;5086955;28;20211;-72
2022/10/28 01:38:35;;;;;;;;;;;11.50;99.90;;;;;;5087529;28;20219;-73
2022/10/28 01:41:06;;;;;;;;;;;11.50;99.90;;;;;;5087712;28;19927;-72
2022/10/28 01:43:36;;;;;;;;;;;11.40;99.90;;;;;;5087475;28;19927;-71
2022/10/28 01:46:05;;;;;;;;;;;11.40;99.90;;;;;;5086823;28;20406;-72
2022/10/28 01:48:34;;;;;;;;;;;11.40;99.90;;;;;;5087500;28;19920;-72
2022/10/28 01:51:04;;;;;;;;;;;11.40;99.90;;;;;;5087670;28;19921;-72
2022/10/28 01:53:33;;;;;;;;;;;11.40;99.90;;;;;;5087459;28;19920;-72
2022/10/28 01:56:02;;;;;;;;;;;11.40;99.90;;;;;;5086848;28;20119;-71
2022/10/28 01:58:30;;;;;;;;;;;11.40;99.90;;;;;;5087245;28;19926;-71
2022/10/28 02:00:59;;;;;;;;;;;11.40;99.90;;;;;;5087519;28;20327;-72
2022/10/28 02:03:27;;;;;;;;;;;11.40;99.90;;;;;;5087143;28;19921;-71
2022/10/28 02:05:55;;;;;;;;;;;11.40;99.90;;;;;;5086724;28;19920;-72
2022/10/28 02:08:30;;;;;;;;;;;11.40;99.90;;;;;;5087066;28;19921;-72
2022/10/28 02:11:01;;;;;;;;;;;11.40;99.90;;;;;;5087178;28;19987;-72
2022/10/28 02:13:31;;;;;;;;;;;11.30;99.90;;;;;;5087281;28;19947;-71
2022/10/28 02:16:02;;;;;;;;;;;11.30;99.90;;;;;;5086348;28;19921;-72
2022/10/28 02:18:34;;;;;;;;;;;11.20;99.90;;;;;;5086953;28;19920;-72
2022/10/28 02:21:03;;;;;;;;;;;11.20;99.90;;;;;;5086695;28;19920;-71
2022/10/28 02:23:36;;;;;;;;;;;11.20;99.90;;;;;;5086976;28;19921;-71
2022/10/28 02:26:08;;;;;;;;;;;11.10;99.90;;;;;;5085933;28;19920;-71
2022/10/28 02:28:39;;;;;;;;;;;11.00;99.90;;;;;;5046687;28;19928;-72
2022/10/28 02:31:08;;;;;;;;;;;11.00;99.90;;;;;;5046907;28;19988;-71
2022/10/28 02:33:38;;;;;;;;;;;11.00;99.90;;;;;;5046624;28;19988;-71
2022/10/28 02:36:06;;;;;;;;;;;11.00;99.90;;;;;;5046149;28;19921;-71
2022/10/28 02:38:35;;;;;;;;;;;11.00;99.90;;;;;;5046655;28;19921;-71
2022/10/28 02:41:03;;;;;;;;;;;11.00;99.90;;;;;;5045632;28;19928;-71
2022/10/28 02:43:32;;;;;;;;;;;11.00;99.90;;;;;;5046590;28;20000;-71
2022/10/28 02:46:00;;;;;;;;;;;11.00;99.90;;;;;;5045575;28;19921;-72
2022/10/28 02:48:28;;;;;;;;;;;11.00;99.90;;;;;;5046070;28;19956;-73
2022/10/28 02:50:58;;;;;;;;;;;10.90;99.90;;;;;;5046130;28;19957;-72
2022/10/28 02:53:28;;;;;;;;;;;10.90;99.90;;;;;;5046431;28;19956;-72
2022/10/28 02:55:56;;;;;;;;;;;10.90;99.90;;;;;;5045961;28;19988;-71
2022/10/28 02:58:23;;;;;;;;;;;10.90;99.90;;;;;;5045863;28;19920;-72
2022/10/28 03:00:50;;;;;;;;;;;10.90;99.90;;;;;;5046315;28;20090;-71
2022/10/28 03:03:17;;;;;;;;;;;10.90;99.90;;;;;;5046200;28;19984;-72
2022/10/28 03:05:44;;;;;;;;;;;10.90;99.90;;;;;;5045483;28;19984;-72
2022/10/28 03:08:12;;;;;;;;;;;10.90;99.90;;;;;;5045733;28;20362;-72
2022/10/28 03:10:39;;;;;;;;;;;11.00;99.90;;;;;;5046061;28;19927;-72
2022/10/28 03:13:05;;;;;;;;;;;11.00;99.90;;;;;;5046023;28;19992;-72
2022/10/28 03:15:32;;;;;;;;;;;11.00;99.90;;;;;;5045039;28;20224;-72
2022/10/28 03:17:58;;;;;;;;;;;10.90;99.90;;;;;;5045961;28;19984;-72
2022/10/28 03:20:25;;;;;;;;;;;10.90;99.90;;;;;;5045943;28;20117;-72
2022/10/28 03:22:52;;;;;;;;;;;10.80;99.90;;;;;;5045901;28;19984;-72
2022/10/28 03:25:20;;;;;;;;;;;10.80;99.90;;;;;;5044867;28;20231;-71
2022/10/28 03:27:46;;;;;;;;;;;10.80;99.90;;;;;;5045610;28;19921;-72
2022/10/28 03:30:14;;;;;;;;;;;10.80;99.90;;;;;;5045724;28;19983;-71
2022/10/28 03:32:41;;;;;;;;;;;10.80;99.90;;;;;;5045800;28;19964;-72
2022/10/28 03:35:08;;;;;;;;;;;10.70;99.90;;;;;;5045100;28;19928;-72
2022/10/28 03:37:34;;;;;;;;;;;10.70;99.90;;;;;;5045563;28;19921;-72
2022/10/28 03:40:06;;;;;;;;;;;10.70;99.90;;;;;;5045258;28;20183;-72
2022/10/28 03:42:34;;;;;;;;;;;10.70;99.90;;;;;;5045587;28;19985;-71
2022/10/28 03:45:01;;;;;;;;;;;10.70;99.90;;;;;;5044931;28;19983;-72
2022/10/28 03:47:27;;;;;;;;;;;10.60;99.90;;;;;;5045093;28;19921;-71
2022/10/28 03:49:54;;;;;;;;;;;10.60;99.90;;;;;;5045467;28;19927;-72
2022/10/28 03:52:20;;;;;;;;;;;10.60;99.90;;;;;;5044443;28;19956;-72
2022/10/28 03:54:47;;;;;;;;;;;10.60;99.90;;;;;;5043769;28;19984;-72
2022/10/28 03:57:14;;;;;;;;;;;10.60;99.90;;;;;;5045054;28;20156;-72
2022/10/28 03:59:41;;;;;;;;;;;10.60;99.90;;;;;;5045427;28;20053;-71
2022/10/28 04:02:08;;;;;;;;;;;10.60;99.90;;;;;;5045251;28;19921;-71
2022/10/28 04:04:35;;;;;;;;;;;10.60;99.90;;;;;;5044231;28;20276;-72
2022/10/28 04:07:01;;;;;;;;;;;10.60;99.90;;;;;;5044204;28;19984;-71
2022/10/28 04:09:28;;;;;;;;;;;10.60;99.90;;;;;;5044190;28;20217;-71
2022/10/28 04:11:54;;;;;;;;;;;10.60;99.90;;;;;;5044561;28;19984;-71
2022/10/28 04:14:21;;;;;;;;;;;10.60;99.90;;;;;;5050342;28;19963;-71
2022/10/28 04:16:49;;;;;;;;;;;10.60;99.90;;;;;;5083746;28;19955;-71
2022/10/28 04:19:16;;;;;;;;;;;10.60;99.90;;;;;;5084140;28;19924;-71
2022/10/28 04:21:42;;;;;;;;;;;10.60;99.90;;;;;;5083928;28;20208;-71
2022/10/28 04:24:09;;;;;;;;;;;10.60;99.90;;;;;;5084113;28;19960;-73
2022/10/28 04:26:36;;;;;;;;;;;10.60;99.90;;;;;;5083161;28;19920;-71
2022/10/28 04:29:02;;;;;;;;;;;10.60;99.90;;;;;;5083985;28;19991;-71
2022/10/28 04:31:29;;;;;;;;;;;10.60;99.90;;;;;;5083892;28;19956;-71
2022/10/28 04:34:03;;;;;;;;;;;10.60;99.90;;;;;;5081664;28;19987;-72
2022/10/28 04:36:29;;;;;;;;;;;10.60;99.90;;;;;;5083534;28;19927;-73
2022/10/28 04:38:56;;;;;;;;;;;10.50;99.90;;;;;;5083667;28;20123;-71
2022/10/28 04:41:22;;;;;;;;;;;10.50;99.90;;;;;;5084062;28;19927;-71
2022/10/28 04:43:49;;;;;;;;;;;10.60;99.90;;;;;;5083698;28;19920;-71
2022/10/28 04:46:16;;;;;;;;;;;10.60;99.90;;;;;;5082983;28;20261;-72
2022/10/28 04:48:42;;;;;;;;;;;10.60;99.90;;;;;;5083257;28;19999;-71
2022/10/28 04:51:10;;;;;;;;;;;10.60;99.90;;;;;;5083813;28;19959;-71
2022/10/28 04:53:37;;;;;;;;;;;10.60;99.90;;;;;;5084051;28;20204;-71
2022/10/28 04:56:03;;;;;;;;;;;10.60;99.90;;;;;;5083606;28;19962;-71
2022/10/28 04:58:30;;;;;;;;;;;10.60;99.90;;;;;;5083862;28;19927;-71
2022/10/28 05:00:57;;;;;;;;;;;10.60;99.90;;;;;;5084148;28;20153;-71
2022/10/28 05:03:23;;;;;;;;;;;10.60;99.90;;;;;;5083895;28;19955;-70
2022/10/28 05:05:50;;;;;;;;;;;10.60;99.90;;;;;;5082807;28;19983;-71
2022/10/28 05:08:18;;;;;;;;;;;10.60;99.90;;;;;;5083758;28;20000;-71
2022/10/28 05:10:48;;;;;;;;;;;10.60;99.90;;;;;;5083986;28;19920;-72
2022/10/28 05:13:15;;;;;;;;;;;10.60;99.90;;;;;;5083519;28;19930;-70
2022/10/28 05:15:42;;;;;;;;;;;10.70;99.90;;;;;;5083240;28;19963;-70
2022/10/28 05:18:08;;;;;;;;;;;10.60;99.90;;;;;;5083968;28;20167;-68
2022/10/28 05:20:35;;;;;;;;;;;10.60;99.90;;;;;;5083656;28;19956;-75
2022/10/28 05:23:01;;;;;;;;;;;10.60;99.90;;;;;;5083563;28;19987;-69
2022/10/28 05:25:29;;;;;;;;;;;10.60;99.90;;;;;;5082652;28;19983;-69
2022/10/28 05:27:58;;;;;;;;;;;10.70;99.90;;;;;;5083622;28;19928;-70
2022/10/28 05:30:24;;;;;;;;;;;10.70;99.90;;;;;;5083635;28;19956;-69
2022/10/28 05:32:51;;;;;;;;;;;10.70;99.90;;;;;;5083794;28;19979;-69
2022/10/28 05:35:18;;;;;;;;;;;10.80;99.90;;;;;;5082680;28;19926;-69
2022/10/28 05:37:44;;;;;;;;;;;10.80;99.90;;;;;;5083147;28;19927;-69
2022/10/28 05:40:11;;;;;;;;;;;10.70;99.90;;;;;;5083137;28;19956;-69
2022/10/28 05:42:42;;;;;;;;;;;10.70;99.90;;;;;;5082846;28;19927;-71
2022/10/28 05:45:09;;;;;;;;;;;10.60;99.90;;;;;;5083122;28;19988;-71
2022/10/28 05:47:35;;;;;;;;;;;10.60;99.90;;;;;;5083053;28;19927;-71
2022/10/28 05:50:02;;;;;;;;;;;10.60;99.90;;;;;;5083569;28;19988;-70
2022/10/28 05:52:31;;;;;;;;;;;10.60;99.90;;;;;;5082356;28;20250;-71
2022/10/28 05:54:57;;;;;;;;;;;10.60;99.90;;;;;;5082962;28;19920;-71
2022/10/28 05:57:24;;;;;;;;;;;10.60;99.90;;;;;;5083352;28;19995;-71
2022/10/28 05:59:52;;;;;;;;;;;10.60;99.90;;;;;;5083493;28;19988;-71
2022/10/28 06:02:18;;;;;;;;;;;10.70;99.90;;;;;;5083440;28;20123;-70
2022/10/28 06:04:45;;;;;;;;;;;10.70;99.90;;;;;;5082688;28;19991;-71
2022/10/28 06:07:12;;;;;;;;;;;10.80;99.90;;;;;;5083394;28;19983;-71
2022/10/28 06:09:38;;;;;;;;;;;10.80;99.90;;;;;;5082697;28;19984;-71
2022/10/28 06:12:07;;;;;;;;;;;10.80;99.90;;;;;;5082584;28;19927;-70
2022/10/28 06:14:33;;;;;;;;;;;10.80;99.90;;;;;;5082327;28;19950;-71
2022/10/28 06:17:01;;;;;;;;;;;10.80;99.90;;;;;;5084287;28;20275;-70
2022/10/28 06:19:28;;;;;;;;;;;10.80;99.90;;;;;;5086698;28;19921;-71
2022/10/28 06:21:54;;;;;;;;;;;10.80;99.90;;;;;;5086448;28;19983;-71
2022/10/28 06:24:21;;;;;;;;;;;10.90;99.90;;;;;;5086605;28;20174;-71
2022/10/28 06:26:48;;;;;;;;;;;10.90;99.90;;;;;;5086352;28;19983;-71
2022/10/28 06:29:14;;;;;;;;;;;10.90;99.90;;;;;;5086465;28;20163;-73
2022/10/28 06:31:41;;;;;;;;;;;10.90;99.90;;;;;;5086783;28;19983;-71
2022/10/28 06:34:09;;;;;;;;;;;11.00;99.90;;;;;;5086756;28;19956;-71
2022/10/28 06:36:36;;;;;;;;;;;11.00;99.90;;;;;;5085662;28;19926;-71
2022/10/28 06:39:03;;;;;;;;;;;11.00;99.90;;;;;;5065977;28;19921;-73
2022/10/28 06:41:29;;;;;;;;;;;11.00;99.90;;;;;;5065699;28;19994;-71
2022/10/28 06:43:56;;;;;;;;;;;11.00;99.90;;;;;;5066591;28;19984;-71
2022/10/28 06:46:23;;;;;;;;;;;11.00;99.90;;;;;;5059955;28;19956;-71
2022/10/28 06:48:49;;;;;;;;;;;11.00;99.90;;;;;;5084708;28;19955;-71
2022/10/28 06:51:17;;;;;;;;;;;11.00;99.90;;;;;;5086329;28;20204;-71
2022/10/28 06:53:44;;;;;;;;;;;11.00;99.90;;;;;;5086231;28;20239;-71
2022/10/28 06:56:10;;;;;;;;;;;11.00;99.90;;;;;;5053563;28;19963;-71
2022/10/28 06:58:37;;;;;;;;;;;11.10;99.90;;;;;;5046027;28;19989;-71
2022/10/28 07:01:04;;;;;;;;;;;11.10;99.90;;;;;;5046076;28;20173;-72
2022/10/28 07:03:34;;;;;;;;;;;11.20;99.90;;;;;;5044084;28;19921;-76
2022/10/28 07:06:00;;;;;;;;;;;11.20;99.90;;;;;;5045500;28;19987;-71
2022/10/28 07:08:28;;;;;;;;;;;11.20;99.90;;;;;;5050714;28;20111;-72
2022/10/28 07:10:56;;;;;;;;;;;11.30;99.90;;;;;;5065873;28;20267;-71
2022/10/28 07:13:22;;;;;;;;;;;11.20;99.90;;;;;;5065657;28;20212;-75
2022/10/28 07:15:50;;;;;;;;;;;11.30;99.90;;;;;;5062476;28;20204;-71
2022/10/28 07:18:17;;;;;;;;;;;11.40;99.90;;;;;;5082036;28;20108;-72
2022/10/28 07:20:44;;;;;;;;;;;11.40;99.90;;;;;;5085846;28;19926;-72
2022/10/28 07:23:10;;;;;;;;;;;11.50;99.90;;;;;;5085900;28;19995;-72
2022/10/28 07:25:38;;;;;;;;;;;11.50;99.90;;;;;;5085230;28;20263;-72
2022/10/28 07:28:05;;;;;;;;;;;11.60;99.90;;;;;;5085792;28;19920;-72
2022/10/28 07:30:32;;;;;;;;;;;11.60;99.90;;;;;;5085409;28;19920;-72
2022/10/28 07:32:59;;;;;;;;;;;11.70;99.90;;;;;;5085849;28;19921;-71
2022/10/28 07:35:28;;;;;;;;;;;11.80;99.90;;;;;;5082340;28;19955;-71
2022/10/28 07:37:54;;;;;;;;;;;11.80;99.90;;;;;;5085408;28;20382;-71
2022/10/28 07:40:22;;;;;;;;;;;11.80;99.90;;;;;;5085504;28;19958;-72
2022/10/28 07:42:50;;;;;;;;;;;11.90;99.90;;;;;;5085645;28;19926;-72
2022/10/28 07:45:18;;;;;;;;;;;12.00;99.90;;;;;;5082229;28;19920;-72
2022/10/28 07:47:45;;;;;;;;;;;12.00;99.90;;;;;;5085512;28;19991;-72
2022/10/28 07:50:12;;;;;;;;;;;12.20;99.90;;;;;;5085144;28;20266;-72
2022/10/28 07:52:38;;;;;;;;;;;12.20;99.90;;;;;;5085452;28;19920;-71
2022/10/28 07:55:06;;;;;;;;;;;12.30;99.90;;;;;;5084252;28;19992;-73
2022/10/28 07:57:33;;;;;;;;;;;12.40;99.90;;;;;;5084866;28;20327;-72
2022/10/28 08:00:01;;;;;;;;;;;12.40;99.90;;;;;;5076489;28;19935;-72
2022/10/28 08:02:28;;;;;;;;;;;12.40;99.90;;;;;;5060925;28;19987;-72
2022/10/28 08:04:55;;;;;;;;;;;12.50;99.90;;;;;;5064270;28;19987;-71
2022/10/28 08:07:22;;;;;;;;;;;12.50;99.90;;;;;;5065108;28;19920;-72
2022/10/28 08:09:48;;;;;;;;;;;12.60;99.90;;;;;;5050510;28;19921;-71
2022/10/28 08:12:15;;;;;;;;;;;12.70;99.90;;;;;;5072505;28;19955;-71
2022/10/28 08:14:47;;;;;;;;;;;12.80;99.90;;;;;;5079621;28;19920;-72
2022/10/28 08:17:15;;;;;;;;;;;12.80;99.90;;;;;;5071409;28;19980;-71
2022/10/28 08:19:42;;;;;;;;;;;12.90;99.90;;;;;;5064932;28;19956;-72
2022/10/28 08:22:08;;;;;;;;;;;12.90;99.90;;;;;;5064545;28;20078;-71
2022/10/28 08:24:38;;;;;;;;;;;13.00;99.90;;;;;;5061766;28;19927;-71
2022/10/28 08:27:05;;;;;;;;;;;13.10;99.90;;;;;;5064445;28;19991;-72
2022/10/28 08:29:32;;;;;;;;;;;13.20;99.90;;;;;;5064306;28;19921;-71
2022/10/28 08:31:58;;;;;;;;;;;13.40;99.90;;;;;;5052006;28;19996;-72
2022/10/28 08:34:28;;;;;;;;;;;13.50;99.90;;;;;;5050709;28;20168;-71
2022/10/28 08:36:54;;;;;;;;;;;13.60;99.90;;;;;;5064313;28;19921;-71
2022/10/28 08:39:21;;;;;;;;;;;13.70;99.90;;;;;;5063979;28;19920;-72
2022/10/28 08:41:50;;;;;;;;;;;13.80;99.90;;;;;;5064537;28;19921;-71
2022/10/28 08:44:38;;;;;;;;;;;13.90;99.90;;;;;;5064397;28;19921;-72
2022/10/28 08:47:10;;;;;;;;;;;14.10;99.90;;;;;;5064182;28;19992;-73
2022/10/28 08:49:40;;;;;;;;;;;14.10;99.90;;;;;;5064346;28;19920;-72
2022/10/28 08:52:10;;;;;;;;;;;14.20;99.90;;;;;;5064083;28;20271;-72
2022/10/28 08:54:40;;;;;;;;;;;14.30;99.90;;;;;;5063504;28;19921;-72
2022/10/28 08:57:11;;;;;;;;;;;14.40;99.90;;;;;;5064056;28;19921;-71
2022/10/28 08:59:40;;;;;;;;;;;14.50;99.90;;;;;;5063944;28;20231;-71
2022/10/28 09:02:16;;;;;;;;;;;14.70;99.90;;;;;;5049200;28;19927;-71
2022/10/28 09:04:45;;;;;;;;;;;14.90;99.90;;;;;;5043507;28;19975;-72
2022/10/28 09:07:15;;;;;;;;;;;15.00;99.90;;;;;;5043814;28;19928;-72
2022/10/28 09:09:42;;;;;;;;;;;15.10;99.90;;;;;;5059710;28;19921;-72
2022/10/28 09:12:21;;;;;;;;;;;15.20;99.90;;;;;;5063712;28;19928;-72
2022/10/28 09:14:56;;;;;;;;;;;15.30;99.90;;;;;;5063401;28;19991;-72
2022/10/28 09:17:29;;;;;;;;;;;15.40;99.90;;;;;;5063571;28;19921;-71
2022/10/28 09:20:00;;;;;;;;;;;15.40;99.90;;;;;;5063760;28;19930;-72
2022/10/28 09:22:31;;;;;;;;;;;15.50;99.90;;;;;;5064002;28;20111;-70
2022/10/28 09:25:00;;;;;;;;;;;15.50;99.90;;;;;;5042970;28;19927;-70
2022/10/28 09:27:34;;;;;;;;;;;15.60;99.90;;;;;;5043634;28;19921;-69
2022/10/28 09:30:04;;;;;;;;;;;15.80;99.90;;;;;;5043565;28;19928;-70
2022/10/28 09:32:37;;;;;;;;;;;15.80;99.90;;;;;;5043595;28;19987;-70
2022/10/28 09:35:06;;;;;;;;;;;15.90;99.90;;;;;;5042873;28;20231;-70
2022/10/28 09:37:36;;;;;;;;;;;16.10;99.90;;;;;;5043771;28;19984;-70
2022/10/28 09:40:05;;;;;;;;;;;16.10;99.90;;;;;;5043789;28;19921;-70
2022/10/28 09:42:34;;;;;;;;;;;16.20;99.90;;;;;;5052514;28;19920;-70
2022/10/28 09:45:02;;;;;;;;;;;16.30;99.90;;;;;;5062333;28;19921;-70
2022/10/28 09:47:30;;;;;;;;;;;16.30;99.90;;;;;;5063269;28;19924;-70
2022/10/28 09:49:59;;;;;;;;;;;16.40;99.90;;;;;;5055436;28;19927;-70
2022/10/28 09:52:29;;;;;;;;;;;16.50;99.90;;;;;;5046170;28;19996;-69
2022/10/28 09:54:58;;;;;;;;;;;16.60;99.90;;;;;;5046568;28;20177;-70
2022/10/28 09:57:28;;;;;;;;;;;16.90;99.90;;;;;;5047478;28;20301;-71
2022/10/28 09:59:55;;;;;;;;;;;17.00;99.90;;;;;;5067012;28;19979;-70
2022/10/28 10:02:25;;;;;;;;;;;17.30;99.90;;;;;;5066780;28;19984;-70
2022/10/28 10:04:52;;;;;;;;;;;17.40;99.90;;;;;;5066223;28;19921;-70
2022/10/28 10:07:25;;;;;;;;;;;17.60;99.90;;;;;;5066617;28;19921;-70
2022/10/28 10:09:53;;;;;;;;;;;17.70;99.90;;;;;;5066608;28;19921;-71
2022/10/28 10:12:20;;;;;;;;;;;17.90;99.90;;;;;;5066801;28;19943;-70
2022/10/28 10:14:48;;;;;;;;;;;18.10;99.90;;;;;;5065982;28;20025;-70
2022/10/28 10:17:16;;;;;;;;;;;18.30;99.90;;;;;;5066760;28;19920;-70
2022/10/28 10:19:59;;;;;;;;;;;18.50;99.90;;;;;;5066524;28;19921;-70
2022/10/28 10:22:30;;;;;;;;;;;18.60;99.90;;;;;;5066739;28;19929;-70
2022/10/28 10:24:58;;;;;;;;;;;18.60;99.90;;;;;;5065752;28;19921;-71
2022/10/28 10:27:26;;;;;;;;;;;18.70;99.90;;;;;;5065883;28;19927;-70
2022/10/28 10:29:53;;;;;;;;;;;18.70;99.90;;;;;;5075601;28;19960;-70
2022/10/28 10:32:22;;;;;;;;;;;18.70;99.90;;;;;;5085927;28;20000;-71
2022/10/28 10:34:54;;;;;;;;;;;18.70;99.90;;;;;;5079845;28;19933;-71
2022/10/28 10:37:21;;;;;;;;;;;18.90;99.90;;;;;;5065869;28;19920;-71
2022/10/28 10:40:01;;;;;;;;;;;19.00;99.90;;;;;;5065869;28;19921;-70
2022/10/28 10:42:27;;;;;;;;;;;19.10;99.90;;;;;;5075586;28;20097;-70
2022/10/28 10:44:58;;;;;;;;;;;19.30;99.90;;;;;;5064230;28;19983;-69
2022/10/28 10:47:25;;;;;;;;;;;19.50;99.90;;;;;;5064550;28;19942;-70
2022/10/28 10:49:53;;;;;;;;;;;19.70;99.90;;;;;;5064912;28;20001;-71
2022/10/28 10:52:22;;;;;;;;;;;19.80;99.90;;;;;;5065772;28;20272;-70
2022/10/28 10:54:58;;;;;;;;;;;19.90;99.90;;;;;;5064495;28;19960;-70
2022/10/28 10:57:26;;;;;;;;;;;20.00;99.90;;;;;;5065912;28;19933;-70
2022/10/28 10:59:54;;;;;;;;;;;20.20;99.90;;;;;;5065937;28;19927;-70
2022/10/28 11:02:23;;;;;;;;;;;20.30;99.90;;;;;;5065278;28;19928;-69
2022/10/28 11:04:50;;;;;;;;;;;20.50;99.90;;;;;;5065099;28;19927;-70
2022/10/28 11:07:17;;;;;;;;;;;20.60;99.90;;;;;;5082081;28;20169;-71
2022/10/28 11:09:47;;;;;;;;;;;20.70;99.90;;;;;;5069597;28;19921;-70
2022/10/28 11:12:17;;;;;;;;;;;20.80;99.90;;;;;;5063734;28;19939;-70
2022/10/28 11:14:55;;;;;;;;;;;20.80;99.90;;;;;;5055390;28;19921;-70
2022/10/28 11:17:23;;;;;;;;;;;20.90;99.90;;;;;;5053168;28;20016;-71
2022/10/28 11:19:52;;;;;;;;;;;21.00;99.90;;;;;;5056549;28;19921;-70
2022/10/28 11:22:25;;;;;;;;;;;21.00;99.90;;;;;;5077463;28;20234;-70
2022/10/28 11:25:00;;;;;;;;;;;21.00;99.90;;;;;;5054531;28;19921;-71
2022/10/28 11:27:35;;;;;;;;;;;21.00;99.90;;;;;;5042742;28;19927;-70
2022/10/28 11:30:05;;;;;;;;;;;20.90;99.90;;;;;;5054796;28;19927;-71
2022/10/28 11:32:46;;;;;;;;;;;20.80;99.90;;;;;;5062301;28;20101;-70
2022/10/28 11:35:29;;;;;;;;;;;20.60;99.90;;;;;;5064298;28;19925;-70
2022/10/28 11:38:02;;;;;;;;;;;20.40;99.90;;;;;;5064939;28;19983;-70
2022/10/28 11:40:31;;;;;;;;;;;20.40;99.90;;;;;;5065226;28;20151;-70
2022/10/28 11:43:15;;;;;;;;;;;20.50;99.90;;;;;;5068356;28;19926;-70
2022/10/28 11:45:46;;;;;;;;;;;20.50;99.90;;;;;;5083256;28;19926;-70
2022/10/28 11:48:21;;;;;;;;;;;20.50;99.90;;;;;;5071933;28;19921;-70
2022/10/28 11:50:51;;;;;;;;;;;20.60;99.90;;;;;;5059648;28;19921;-70
2022/10/28 11:53:28;;;;;;;;;;;20.60;99.90;;;;;;5046629;28;19952;-69
2022/10/28 11:55:58;;;;;;;;;;;20.60;99.90;;;;;;5057699;28;19984;-69
2022/10/28 11:58:32;;;;;;;;;;;20.60;99.90;;;;;;5062842;28;19980;-69
2022/10/28 12:01:08;;;;;;;;;;;20.60;99.90;;;;;;5061107;28;19921;-68
2022/10/28 12:03:43;;;;;;;;;;;20.60;99.90;;;;;;5060591;28;19920;-69
2022/10/28 12:06:15;;;;;;;;;;;20.70;99.90;;;;;;5060481;28;19925;-69
2022/10/28 12:08:50;;;;;;;;;;;21.00;99.90;;;;;;5069098;28;19988;-69
2022/10/28 12:11:20;;;;;;;;;;;21.20;99.90;;;;;;5064056;28;19921;-69
2022/10/28 12:13:52;;;;;;;;;;;21.30;99.90;;;;;;5064457;28;19995;-69
2022/10/28 12:16:24;;;;;;;;;;;21.30;99.90;;;;;;5042171;28;20213;-73
2022/10/28 12:18:54;;;;;;;;;;;21.20;99.90;;;;;;5052596;28;19932;-69
2022/10/28 12:21:25;;;;;;;;;;;21.10;99.90;;;;;;5062751;28;19927;-70
2022/10/28 12:23:53;;;;;;;;;;;21.00;99.90;;;;;;5061997;28;19921;-70
2022/10/28 12:26:20;;;;;;;;;;;20.90;99.90;;;;;;5063733;28;19921;-70
2022/10/28 12:28:49;;;;;;;;;;;20.90;99.90;;;;;;5057061;28;19927;-70
2022/10/28 12:31:22;;;;;;;;;;;20.80;99.90;;;;;;5063242;28;20011;-71
2022/10/28 12:33:50;;;;;;;;;;;20.70;99.90;;;;;;5063721;28;19920;-70
2022/10/28 12:36:19;;;;;;;;;;;20.60;99.90;;;;;;5067582;28;19927;-70
2022/10/28 12:38:49;;;;;;;;;;;20.60;99.90;;;;;;5043993;28;19983;-70
2022/10/28 12:41:18;;;;;;;;;;;20.60;99.90;;;;;;5051588;28;19927;-70
2022/10/28 12:43:47;;;;;;;;;;;20.60;99.90;;;;;;5063603;28;19986;-70
2022/10/28 12:46:18;;;;;;;;;;;20.60;99.90;;;;;;5062773;28;19920;-70
2022/10/28 12:48:48;;;;;;;;;;;20.60;99.90;;;;;;5052881;28;19927;-70
2022/10/28 12:51:17;;;;;;;;;;;20.60;99.90;;;;;;5067619;28;19920;-70
2022/10/28 12:53:46;;;;;;;;;;;20.50;99.90;;;;;;5063165;28;19980;-70
2022/10/28 12:56:14;;;;;;;;;;;20.50;99.90;;;;;;5062547;28;20200;-70
2022/10/28 12:58:45;;;;;;;;;;;20.50;99.90;;;;;;5070760;28;20003;-70
2022/10/28 13:01:13;;;;;;;;;;;20.50;99.90;;;;;;5063619;28;19927;-70
2022/10/28 13:03:40;;;;;;;;;;;20.50;99.90;;;;;;5071887;28;19935;-70
2022/10/28 13:06:21;;;;;;;;;;;20.50;99.90;;;;;;5062757;28;19943;-71
2022/10/28 13:09:08;;;;;;;;;;;20.50;99.90;;;;;;5041713;28;19984;-69
2022/10/28 13:11:44;;;;;;;;;;;20.50;99.90;;;;;;5052535;28;19921;-71
2022/10/28 13:14:18;;;;;;;;;;;20.60;99.90;;;;;;5065446;28;20132;-70
2022/10/28 13:16:57;;;;;;;;;;;20.70;99.90;;;;;;5062329;28;19988;-70
2022/10/28 13:19:39;;;;;;;;;;;20.80;99.90;;;;;;5063035;28;20242;-69
2022/10/28 13:22:23;;;;;;;;;;;20.80;99.90;;;;;;5060508;28;19921;-69
2022/10/28 13:24:56;;;;;;;;;;;20.80;99.90;;;;;;5061513;28;19935;-70
2022/10/28 13:27:24;;;;;;;;;;;20.80;99.90;;;;;;5047112;28;19921;-69
2022/10/28 13:29:52;;;;;;;;;;;20.80;99.90;;;;;;5060082;28;19921;-69
2022/10/28 13:32:36;;;;;;;;;;;20.90;99.90;;;;;;5063084;28;20085;-68
2022/10/28 13:35:11;;;;;;;;;;;21.00;99.90;;;;;;5050804;28;19927;-69
2022/10/28 13:37:39;;;;;;;;;;;21.10;99.90;;;;;;5063717;28;19921;-70
2022/10/28 13:40:06;;;;;;;;;;;21.20;99.90;;;;;;5063238;28;19924;-70
2022/10/28 13:42:54;;;;;;;;;;;21.20;99.90;;;;;;5062705;28;19921;-68
2022/10/28 13:45:39;;;;;;;;;;;21.30;99.90;;;;;;5060831;28;19921;-69
2022/10/28 13:48:23;;;;;;;;;;;21.40;99.90;;;;;;5061883;28;19921;-72
2022/10/28 13:50:51;;;;;;;;;;;21.50;99.90;;;;;;5059346;28;20127;-72
2022/10/28 13:53:44;;;;;;;;;;;21.60;99.90;;;;;;5062114;28;19927;-71
2022/10/28 13:56:28;;;;;;;;;;;21.70;99.90;;;;;;5045520;28;19963;-71
2022/10/28 13:58:55;;;;;;;;;;;21.80;99.90;;;;;;5058542;28;19980;-71
2022/10/28 14:01:40;;;;;;;;;;;21.70;99.90;;;;;;5056477;28;19956;-74
2022/10/28 14:04:20;;;;;;;;;;;21.60;99.90;;;;;;5062973;28;19927;-71
2022/10/28 14:06:48;;;;;;;;;;;21.60;99.90;;;;;;5059800;28;19929;-70
2022/10/28 14:09:20;;;;;;;;;;;21.50;99.90;;;;;;5081651;28;19942;-70
2022/10/28 14:11:47;;;;;;;;;;;21.40;99.90;;;;;;5082761;28;19983;-69
2022/10/28 14:14:15;;;;;;;;;;;21.30;99.90;;;;;;5083016;28;20175;-70
2022/10/28 14:16:43;;;;;;;;;;;21.30;99.90;;;;;;5081784;28;19927;-70
2022/10/28 14:19:16;;;;;;;;;;;21.30;99.90;;;;;;5069625;28;19920;-69
2022/10/28 14:21:44;;;;;;;;;;;21.20;99.90;;;;;;5062847;28;19983;-70
2022/10/28 14:24:14;;;;;;;;;;;21.10;99.90;;;;;;5062791;28;19925;-67
2022/10/28 14:26:59;;;;;;;;;;;21.10;99.90;;;;;;5075292;28;19980;-70
2022/10/28 14:29:28;;;;;;;;;;;21.20;99.90;;;;;;5082689;28;19988;-70